sensor_id;sensor_type;location;lat;lon;timestamp;P1;durP1;ratioP1;P2;durP2;ratioP2
57331;SDS011;43164;50.908;18.092;2023-05-10T00:01:51;10.20;;;3.60;;
57331;SDS011;43164;50.908;18.092;2023-05-10T00:04:27;9.80;;;3.60;;
57331;SDS011;43164;50.908;18.092;2023-05-10T00:06:58;10.20;;;3.60;;
57331;SDS011;43164;50.908;18.092;2023-05-10T00:09:26;10.50;;;3.60;;
57331;SDS011;43164;50.908;18.092;2023-05-10T00:11:55;9.40;;;3.70;;
57331;SDS011;43164;50.908;18.092;2023-05-10T00:14:24;10.50;;;3.90;;
57331;SDS011;43164;50.908;18.092;2023-05-10T00:16:54;9.20;;;3.60;;
57331;SDS011;43164;50.908;18.092;2023-05-10T00:19:22;9.40;;;3.60;;
57331;SDS011;43164;50.908;18.092;2023-05-10T00:21:53;11.70;;;3.80;;
57331;SDS011;43164;50.908;18.092;2023-05-10T00:24:22;14.70;;;4.00;;
57331;SDS011;43164;50.908;18.092;2023-05-10T00:26:52;12.20;;;3.80;;
57331;SDS011;43164;50.908;18.092;2023-05-10T00:29:20;9.40;;;4.00;;
57331;SDS011;43164;50.908;18.092;2023-05-10T00:31:53;9.10;;;3.50;;
57331;SDS011;43164;50.908;18.092;2023-05-10T00:34:26;14.00;;;4.10;;
57331;SDS011;43164;50.908;18.092;2023-05-10T00:37:01;10.70;;;3.90;;
57331;SDS011;43164;50.908;18.092;2023-05-10T00:39:34;9.60;;;3.90;;
57331;SDS011;43164;50.908;18.092;2023-05-10T00:42:03;11.70;;;4.00;;
57331;SDS011;43164;50.908;18.092;2023-05-10T00:44:36;12.30;;;3.50;;
57331;SDS011;43164;50.908;18.092;2023-05-10T00:47:05;11.90;;;3.90;;
57331;SDS011;43164;50.908;18.092;2023-05-10T00:49:36;9.90;;;3.60;;
57331;SDS011;43164;50.908;18.092;2023-05-10T00:52:04;9.50;;;3.90;;
57331;SDS011;43164;50.908;18.092;2023-05-10T00:54:33;12.20;;;4.10;;
57331;SDS011;43164;50.908;18.092;2023-05-10T00:57:00;11.60;;;3.90;;
57331;SDS011;43164;50.908;18.092;2023-05-10T00:59:28;11.60;;;4.30;;
57331;SDS011;43164;50.908;18.092;2023-05-10T01:01:55;9.70;;;4.10;;
57331;SDS011;43164;50.908;18.092;2023-05-10T01:04:23;12.50;;;4.20;;
57331;SDS011;43164;50.908;18.092;2023-05-10T01:06:56;10.80;;;4.30;;
57331;SDS011;43164;50.908;18.092;2023-05-10T01:09:24;12.30;;;4.50;;
57331;SDS011;43164;50.908;18.092;2023-05-10T01:11:52;12.70;;;4.10;;
57331;SDS011;43164;50.908;18.092;2023-05-10T01:14:21;12.10;;;4.20;;
57331;SDS011;43164;50.908;18.092;2023-05-10T01:16:49;11.90;;;4.40;;
57331;SDS011;43164;50.908;18.092;2023-05-10T01:19:18;12.30;;;4.40;;
57331;SDS011;43164;50.908;18.092;2023-05-10T01:24:56;11.80;;;4.30;;
57331;SDS011;43164;50.908;18.092;2023-05-10T01:30:50;12.80;;;4.40;;
57331;SDS011;43164;50.908;18.092;2023-05-10T01:33:54;15.80;;;4.50;;
57331;SDS011;43164;50.908;18.092;2023-05-10T01:36:30;10.60;;;4.00;;
57331;SDS011;43164;50.908;18.092;2023-05-10T01:39:09;14.70;;;4.40;;
57331;SDS011;43164;50.908;18.092;2023-05-10T01:50:08;9.90;;;3.90;;
57331;SDS011;43164;50.908;18.092;2023-05-10T01:52:44;12.40;;;4.60;;
57331;SDS011;43164;50.908;18.092;2023-05-10T01:55:20;13.60;;;4.50;;
57331;SDS011;43164;50.908;18.092;2023-05-10T01:57:51;12.90;;;4.90;;
57331;SDS011;43164;50.908;18.092;2023-05-10T02:00:26;10.90;;;4.20;;
57331;SDS011;43164;50.908;18.092;2023-05-10T02:02:55;14.10;;;4.40;;
57331;SDS011;43164;50.908;18.092;2023-05-10T02:05:24;16.30;;;5.00;;
57331;SDS011;43164;50.908;18.092;2023-05-10T02:07:52;13.80;;;4.80;;
57331;SDS011;43164;50.908;18.092;2023-05-10T02:10:21;11.70;;;4.10;;
57331;SDS011;43164;50.908;18.092;2023-05-10T02:12:49;10.30;;;4.60;;
57331;SDS011;43164;50.908;18.092;2023-05-10T02:15:22;14.70;;;4.70;;
57331;SDS011;43164;50.908;18.092;2023-05-10T02:17:52;11.80;;;4.30;;
57331;SDS011;43164;50.908;18.092;2023-05-10T02:20:22;11.70;;;4.60;;
57331;SDS011;43164;50.908;18.092;2023-05-10T02:22:51;12.50;;;4.60;;
57331;SDS011;43164;50.908;18.092;2023-05-10T02:25:21;12.80;;;4.60;;
57331;SDS011;43164;50.908;18.092;2023-05-10T02:27:51;12.30;;;4.30;;
57331;SDS011;43164;50.908;18.092;2023-05-10T02:30:22;10.80;;;4.50;;
57331;SDS011;43164;50.908;18.092;2023-05-10T02:32:51;14.90;;;4.80;;
57331;SDS011;43164;50.908;18.092;2023-05-10T02:35:19;12.10;;;4.80;;
57331;SDS011;43164;50.908;18.092;2023-05-10T02:37:46;13.60;;;5.00;;
57331;SDS011;43164;50.908;18.092;2023-05-10T02:40:15;11.10;;;4.40;;
57331;SDS011;43164;50.908;18.092;2023-05-10T02:42:43;13.50;;;5.60;;
57331;SDS011;43164;50.908;18.092;2023-05-10T02:45:12;11.00;;;4.20;;
57331;SDS011;43164;50.908;18.092;2023-05-10T02:47:44;12.60;;;4.60;;
57331;SDS011;43164;50.908;18.092;2023-05-10T02:50:11;12.20;;;4.50;;
57331;SDS011;43164;50.908;18.092;2023-05-10T02:52:40;14.80;;;4.80;;
57331;SDS011;43164;50.908;18.092;2023-05-10T02:55:12;12.10;;;5.00;;
57331;SDS011;43164;50.908;18.092;2023-05-10T03:00:15;10.30;;;4.50;;
57331;SDS011;43164;50.908;18.092;2023-05-10T03:02:43;13.80;;;4.70;;
57331;SDS011;43164;50.908;18.092;2023-05-10T03:05:10;13.30;;;4.80;;
57331;SDS011;43164;50.908;18.092;2023-05-10T03:07:39;14.50;;;5.10;;
57331;SDS011;43164;50.908;18.092;2023-05-10T03:10:07;13.50;;;4.90;;
57331;SDS011;43164;50.908;18.092;2023-05-10T03:18:14;13.90;;;5.20;;
57331;SDS011;43164;50.908;18.092;2023-05-10T03:20:53;13.90;;;4.90;;
57331;SDS011;43164;50.908;18.092;2023-05-10T03:23:36;10.80;;;4.70;;
57331;SDS011;43164;50.908;18.092;2023-05-10T03:26:24;11.20;;;4.10;;
57331;SDS011;43164;50.908;18.092;2023-05-10T03:28:55;14.40;;;3.90;;
57331;SDS011;43164;50.908;18.092;2023-05-10T03:31:23;9.10;;;3.90;;
57331;SDS011;43164;50.908;18.092;2023-05-10T03:33:52;11.80;;;4.40;;
57331;SDS011;43164;50.908;18.092;2023-05-10T03:36:20;14.10;;;4.40;;
57331;SDS011;43164;50.908;18.092;2023-05-10T03:38:49;12.10;;;4.60;;
57331;SDS011;43164;50.908;18.092;2023-05-10T03:41:18;13.50;;;4.50;;
57331;SDS011;43164;50.908;18.092;2023-05-10T03:43:47;11.00;;;4.20;;
57331;SDS011;43164;50.908;18.092;2023-05-10T03:46:17;11.00;;;4.30;;
57331;SDS011;43164;50.908;18.092;2023-05-10T03:48:46;9.80;;;4.00;;
57331;SDS011;43164;50.908;18.092;2023-05-10T03:51:19;10.10;;;4.10;;
57331;SDS011;43164;50.908;18.092;2023-05-10T03:53:49;9.20;;;3.90;;
57331;SDS011;43164;50.908;18.092;2023-05-10T03:56:17;9.30;;;3.90;;
57331;SDS011;43164;50.908;18.092;2023-05-10T03:58:45;9.60;;;3.80;;
57331;SDS011;43164;50.908;18.092;2023-05-10T04:01:32;10.80;;;3.60;;
57331;SDS011;43164;50.908;18.092;2023-05-10T04:04:07;9.00;;;3.60;;
57331;SDS011;43164;50.908;18.092;2023-05-10T04:06:44;9.00;;;3.80;;
57331;SDS011;43164;50.908;18.092;2023-05-10T04:09:13;11.20;;;4.00;;
57331;SDS011;43164;50.908;18.092;2023-05-10T04:11:43;7.90;;;3.30;;
57331;SDS011;43164;50.908;18.092;2023-05-10T04:14:12;8.60;;;3.80;;
57331;SDS011;43164;50.908;18.092;2023-05-10T04:16:42;7.90;;;3.20;;
57331;SDS011;43164;50.908;18.092;2023-05-10T04:19:11;7.80;;;3.40;;
57331;SDS011;43164;50.908;18.092;2023-05-10T04:21:43;8.60;;;3.60;;
57331;SDS011;43164;50.908;18.092;2023-05-10T04:24:13;8.20;;;3.10;;
57331;SDS011;43164;50.908;18.092;2023-05-10T04:29:39;8.10;;;3.50;;
57331;SDS011;43164;50.908;18.092;2023-05-10T04:32:11;9.40;;;3.40;;
57331;SDS011;43164;50.908;18.092;2023-05-10T04:38:25;8.90;;;3.10;;
57331;SDS011;43164;50.908;18.092;2023-05-10T04:40:54;8.00;;;2.90;;
57331;SDS011;43164;50.908;18.092;2023-05-10T04:43:47;11.50;;;3.40;;
57331;SDS011;43164;50.908;18.092;2023-05-10T04:46:19;6.40;;;2.90;;
57331;SDS011;43164;50.908;18.092;2023-05-10T04:48:53;7.60;;;3.10;;
57331;SDS011;43164;50.908;18.092;2023-05-10T04:51:25;5.60;;;2.70;;
57331;SDS011;43164;50.908;18.092;2023-05-10T04:54:06;8.10;;;2.50;;
57331;SDS011;43164;50.908;18.092;2023-05-10T04:56:37;6.60;;;2.80;;
57331;SDS011;43164;50.908;18.092;2023-05-10T04:59:07;7.70;;;3.10;;
57331;SDS011;43164;50.908;18.092;2023-05-10T05:01:37;7.40;;;2.20;;
57331;SDS011;43164;50.908;18.092;2023-05-10T05:04:13;5.80;;;2.30;;
57331;SDS011;43164;50.908;18.092;2023-05-10T05:06:41;9.20;;;2.80;;
57331;SDS011;43164;50.908;18.092;2023-05-10T05:09:13;7.10;;;2.50;;
57331;SDS011;43164;50.908;18.092;2023-05-10T05:11:42;6.60;;;2.50;;
57331;SDS011;43164;50.908;18.092;2023-05-10T05:14:21;5.40;;;1.90;;
57331;SDS011;43164;50.908;18.092;2023-05-10T05:16:53;5.80;;;2.50;;
57331;SDS011;43164;50.908;18.092;2023-05-10T05:19:23;7.60;;;2.60;;
57331;SDS011;43164;50.908;18.092;2023-05-10T05:22:02;6.90;;;2.40;;
57331;SDS011;43164;50.908;18.092;2023-05-10T05:24:34;5.20;;;2.00;;
57331;SDS011;43164;50.908;18.092;2023-05-10T05:27:09;8.00;;;2.50;;
57331;SDS011;43164;50.908;18.092;2023-05-10T05:29:36;7.20;;;2.30;;
57331;SDS011;43164;50.908;18.092;2023-05-10T05:32:05;6.60;;;2.50;;
57331;SDS011;43164;50.908;18.092;2023-05-10T05:34:49;6.30;;;2.20;;
57331;SDS011;43164;50.908;18.092;2023-05-10T05:37:19;6.00;;;2.20;;
57331;SDS011;43164;50.908;18.092;2023-05-10T05:39:51;7.00;;;1.90;;
57331;SDS011;43164;50.908;18.092;2023-05-10T05:42:23;5.90;;;2.40;;
57331;SDS011;43164;50.908;18.092;2023-05-10T05:44:59;5.40;;;2.00;;
57331;SDS011;43164;50.908;18.092;2023-05-10T05:47:27;6.50;;;2.00;;
57331;SDS011;43164;50.908;18.092;2023-05-10T05:49:58;6.40;;;2.30;;
57331;SDS011;43164;50.908;18.092;2023-05-10T05:52:26;4.90;;;1.90;;
57331;SDS011;43164;50.908;18.092;2023-05-10T05:54:54;5.50;;;2.00;;
57331;SDS011;43164;50.908;18.092;2023-05-10T05:57:22;5.20;;;2.00;;
57331;SDS011;43164;50.908;18.092;2023-05-10T05:59:51;5.20;;;1.90;;
57331;SDS011;43164;50.908;18.092;2023-05-10T06:02:27;6.20;;;1.90;;
57331;SDS011;43164;50.908;18.092;2023-05-10T06:04:54;4.10;;;1.70;;
57331;SDS011;43164;50.908;18.092;2023-05-10T06:07:22;4.80;;;1.70;;
57331;SDS011;43164;50.908;18.092;2023-05-10T06:09:50;5.30;;;1.60;;
57331;SDS011;43164;50.908;18.092;2023-05-10T06:45:20;4.70;;;1.80;;
57331;SDS011;43164;50.908;18.092;2023-05-10T06:47:56;8.10;;;1.70;;
57331;SDS011;43164;50.908;18.092;2023-05-10T06:50:31;6.00;;;2.10;;
57331;SDS011;43164;50.908;18.092;2023-05-10T06:53:15;5.60;;;1.80;;
57331;SDS011;43164;50.908;18.092;2023-05-10T06:55:44;4.20;;;1.20;;
57331;SDS011;43164;50.908;18.092;2023-05-10T06:58:26;4.20;;;1.90;;
57331;SDS011;43164;50.908;18.092;2023-05-10T07:01:12;3.80;;;1.70;;
57331;SDS011;43164;50.908;18.092;2023-05-10T07:07:28;5.60;;;2.00;;
57331;SDS011;43164;50.908;18.092;2023-05-10T07:09:59;5.60;;;1.90;;
57331;SDS011;43164;50.908;18.092;2023-05-10T07:12:28;5.80;;;1.70;;
57331;SDS011;43164;50.908;18.092;2023-05-10T07:18:44;8.00;;;1.80;;
57331;SDS011;43164;50.908;18.092;2023-05-10T07:21:12;5.20;;;1.70;;
57331;SDS011;43164;50.908;18.092;2023-05-10T07:23:58;4.20;;;1.60;;
57331;SDS011;43164;50.908;18.092;2023-05-10T07:30:08;5.70;;;1.70;;
57331;SDS011;43164;50.908;18.092;2023-05-10T07:32:38;4.50;;;1.80;;
57331;SDS011;43164;50.908;18.092;2023-05-10T07:35:12;5.40;;;1.60;;
57331;SDS011;43164;50.908;18.092;2023-05-10T07:37:49;3.80;;;1.50;;
57331;SDS011;43164;50.908;18.092;2023-05-10T07:40:21;5.60;;;1.30;;
57331;SDS011;43164;50.908;18.092;2023-05-10T07:42:55;3.80;;;1.40;;
57331;SDS011;43164;50.908;18.092;2023-05-10T07:45:23;4.10;;;1.50;;
57331;SDS011;43164;50.908;18.092;2023-05-10T07:48:04;6.90;;;1.70;;
57331;SDS011;43164;50.908;18.092;2023-05-10T07:56:52;5.60;;;1.50;;
57331;SDS011;43164;50.908;18.092;2023-05-10T07:59:19;10.10;;;1.70;;
57331;SDS011;43164;50.908;18.092;2023-05-10T08:01:48;3.40;;;1.50;;
57331;SDS011;43164;50.908;18.092;2023-05-10T08:04:16;4.40;;;1.40;;
57331;SDS011;43164;50.908;18.092;2023-05-10T08:06:50;4.80;;;1.60;;
57331;SDS011;43164;50.908;18.092;2023-05-10T08:09:23;4.50;;;1.40;;
57331;SDS011;43164;50.908;18.092;2023-05-10T08:11:51;4.70;;;1.40;;
57331;SDS011;43164;50.908;18.092;2023-05-10T08:14:23;4.50;;;1.60;;
57331;SDS011;43164;50.908;18.092;2023-05-10T08:16:52;5.00;;;1.60;;
57331;SDS011;43164;50.908;18.092;2023-05-10T08:19:24;7.40;;;1.50;;
57331;SDS011;43164;50.908;18.092;2023-05-10T08:21:52;4.80;;;1.40;;
57331;SDS011;43164;50.908;18.092;2023-05-10T08:24:24;5.80;;;1.70;;
57331;SDS011;43164;50.908;18.092;2023-05-10T08:26:51;3.80;;;1.60;;
57331;SDS011;43164;50.908;18.092;2023-05-10T08:29:19;5.00;;;1.70;;
57331;SDS011;43164;50.908;18.092;2023-05-10T08:31:46;4.10;;;1.40;;
57331;SDS011;43164;50.908;18.092;2023-05-10T08:34:15;4.50;;;2.00;;
57331;SDS011;43164;50.908;18.092;2023-05-10T08:36:44;5.60;;;1.90;;
57331;SDS011;43164;50.908;18.092;2023-05-10T08:39:12;5.80;;;1.80;;
57331;SDS011;43164;50.908;18.092;2023-05-10T08:41:40;5.00;;;1.70;;
57331;SDS011;43164;50.908;18.092;2023-05-10T08:44:12;4.10;;;1.50;;
57331;SDS011;43164;50.908;18.092;2023-05-10T08:46:40;3.30;;;1.20;;
57331;SDS011;43164;50.908;18.092;2023-05-10T08:49:10;3.50;;;1.30;;
57331;SDS011;43164;50.908;18.092;2023-05-10T08:51:40;5.40;;;1.60;;
57331;SDS011;43164;50.908;18.092;2023-05-10T08:54:14;3.80;;;1.50;;
57331;SDS011;43164;50.908;18.092;2023-05-10T09:00:22;4.70;;;1.60;;
57331;SDS011;43164;50.908;18.092;2023-05-10T09:02:51;3.40;;;1.70;;
57331;SDS011;43164;50.908;18.092;2023-05-10T09:05:19;4.30;;;1.60;;
57331;SDS011;43164;50.908;18.092;2023-05-10T09:07:47;3.60;;;1.30;;
57331;SDS011;43164;50.908;18.092;2023-05-10T09:10:16;3.70;;;1.20;;
57331;SDS011;43164;50.908;18.092;2023-05-10T09:12:44;6.30;;;1.90;;
57331;SDS011;43164;50.908;18.092;2023-05-10T09:15:16;4.60;;;1.50;;
57331;SDS011;43164;50.908;18.092;2023-05-10T09:17:56;4.10;;;1.50;;
57331;SDS011;43164;50.908;18.092;2023-05-10T09:20:33;3.90;;;1.30;;
57331;SDS011;43164;50.908;18.092;2023-05-10T09:23:08;4.00;;;1.50;;
57331;SDS011;43164;50.908;18.092;2023-05-10T09:25:38;4.70;;;1.70;;
57331;SDS011;43164;50.908;18.092;2023-05-10T09:28:16;6.50;;;1.60;;
57331;SDS011;43164;50.908;18.092;2023-05-10T09:30:45;4.20;;;1.60;;
57331;SDS011;43164;50.908;18.092;2023-05-10T09:37:06;4.20;;;1.80;;
57331;SDS011;43164;50.908;18.092;2023-05-10T09:43:06;7.00;;;1.70;;
57331;SDS011;43164;50.908;18.092;2023-05-10T09:45:42;4.40;;;1.50;;
57331;SDS011;43164;50.908;18.092;2023-05-10T09:52:04;3.80;;;1.40;;
57331;SDS011;43164;50.908;18.092;2023-05-10T09:54:52;5.10;;;1.80;;
57331;SDS011;43164;50.908;18.092;2023-05-10T10:03:58;4.50;;;1.90;;
57331;SDS011;43164;50.908;18.092;2023-05-10T10:06:42;3.90;;;1.80;;
57331;SDS011;43164;50.908;18.092;2023-05-10T10:09:10;6.20;;;1.70;;
57331;SDS011;43164;50.908;18.092;2023-05-10T10:11:39;4.60;;;1.70;;
57331;SDS011;43164;50.908;18.092;2023-05-10T10:19:33;3.70;;;1.40;;
57331;SDS011;43164;50.908;18.092;2023-05-10T10:22:02;5.70;;;1.50;;
57331;SDS011;43164;50.908;18.092;2023-05-10T10:24:31;6.10;;;1.80;;
57331;SDS011;43164;50.908;18.092;2023-05-10T10:27:04;3.90;;;1.40;;
57331;SDS011;43164;50.908;18.092;2023-05-10T10:33:09;5.20;;;1.40;;
57331;SDS011;43164;50.908;18.092;2023-05-10T10:36:02;3.40;;;1.30;;
57331;SDS011;43164;50.908;18.092;2023-05-10T10:38:37;4.00;;;1.20;;
57331;SDS011;43164;50.908;18.092;2023-05-10T10:44:33;3.90;;;1.20;;
57331;SDS011;43164;50.908;18.092;2023-05-10T10:47:09;3.80;;;1.40;;
57331;SDS011;43164;50.908;18.092;2023-05-10T10:50:04;5.30;;;1.70;;
57331;SDS011;43164;50.908;18.092;2023-05-10T11:01:46;4.10;;;1.40;;
57331;SDS011;43164;50.908;18.092;2023-05-10T11:07:37;5.10;;;1.80;;
57331;SDS011;43164;50.908;18.092;2023-05-10T11:21:21;5.60;;;1.70;;
57331;SDS011;43164;50.908;18.092;2023-05-10T11:38:47;4.50;;;1.20;;
57331;SDS011;43164;50.908;18.092;2023-05-10T12:05:21;3.00;;;1.20;;
57331;SDS011;43164;50.908;18.092;2023-05-10T12:07:53;3.60;;;1.20;;
57331;SDS011;43164;50.908;18.092;2023-05-10T12:10:39;4.40;;;1.10;;
57331;SDS011;43164;50.908;18.092;2023-05-10T12:16:56;5.30;;;1.10;;
57331;SDS011;43164;50.908;18.092;2023-05-10T12:19:40;4.00;;;1.30;;
57331;SDS011;43164;50.908;18.092;2023-05-10T12:22:13;3.10;;;1.50;;
57331;SDS011;43164;50.908;18.092;2023-05-10T12:28:29;4.70;;;1.40;;
57331;SDS011;43164;50.908;18.092;2023-05-10T12:31:00;3.70;;;1.30;;
57331;SDS011;43164;50.908;18.092;2023-05-10T12:33:39;3.90;;;1.30;;
57331;SDS011;43164;50.908;18.092;2023-05-10T12:36:15;5.40;;;1.30;;
57331;SDS011;43164;50.908;18.092;2023-05-10T12:42:11;3.00;;;1.30;;
57331;SDS011;43164;50.908;18.092;2023-05-10T12:44:38;4.10;;;1.30;;
57331;SDS011;43164;50.908;18.092;2023-05-10T12:47:06;3.60;;;1.20;;
57331;SDS011;43164;50.908;18.092;2023-05-10T12:49:34;4.70;;;1.20;;
57331;SDS011;43164;50.908;18.092;2023-05-10T12:52:02;3.70;;;1.20;;
57331;SDS011;43164;50.908;18.092;2023-05-10T12:54:31;3.50;;;1.40;;
57331;SDS011;43164;50.908;18.092;2023-05-10T12:57:00;6.20;;;1.50;;
57331;SDS011;43164;50.908;18.092;2023-05-10T12:59:29;5.20;;;1.40;;
57331;SDS011;43164;50.908;18.092;2023-05-10T13:09:15;3.40;;;1.10;;
57331;SDS011;43164;50.908;18.092;2023-05-10T13:11:49;3.10;;;1.10;;
57331;SDS011;43164;50.908;18.092;2023-05-10T13:14:18;4.30;;;1.30;;
57331;SDS011;43164;50.908;18.092;2023-05-10T13:16:47;6.10;;;1.30;;
57331;SDS011;43164;50.908;18.092;2023-05-10T13:19:16;5.70;;;1.20;;
57331;SDS011;43164;50.908;18.092;2023-05-10T13:21:44;4.00;;;1.10;;
57331;SDS011;43164;50.908;18.092;2023-05-10T13:24:11;3.40;;;1.30;;
57331;SDS011;43164;50.908;18.092;2023-05-10T13:26:44;3.80;;;1.40;;
57331;SDS011;43164;50.908;18.092;2023-05-10T13:29:13;3.50;;;1.20;;
57331;SDS011;43164;50.908;18.092;2023-05-10T13:31:47;3.50;;;1.30;;
57331;SDS011;43164;50.908;18.092;2023-05-10T13:34:18;3.70;;;1.30;;
57331;SDS011;43164;50.908;18.092;2023-05-10T13:55:33;6.90;;;1.80;;
57331;SDS011;43164;50.908;18.092;2023-05-10T14:15:47;5.90;;;1.40;;
57331;SDS011;43164;50.908;18.092;2023-05-10T14:18:24;3.80;;;1.20;;
57331;SDS011;43164;50.908;18.092;2023-05-10T14:24:26;3.90;;;1.30;;
57331;SDS011;43164;50.908;18.092;2023-05-10T14:27:19;3.60;;;1.20;;
57331;SDS011;43164;50.908;18.092;2023-05-10T14:29:57;3.60;;;1.30;;
57331;SDS011;43164;50.908;18.092;2023-05-10T14:35:56;2.20;;;1.00;;
57331;SDS011;43164;50.908;18.092;2023-05-10T14:38:36;3.20;;;1.20;;
57331;SDS011;43164;50.908;18.092;2023-05-10T14:41:11;3.60;;;1.40;;
57331;SDS011;43164;50.908;18.092;2023-05-10T14:44:01;4.60;;;1.30;;
57331;SDS011;43164;50.908;18.092;2023-05-10T14:46:46;5.00;;;1.50;;
57331;SDS011;43164;50.908;18.092;2023-05-10T14:49:19;4.10;;;1.20;;
57331;SDS011;43164;50.908;18.092;2023-05-10T15:01:21;4.40;;;1.50;;
57331;SDS011;43164;50.908;18.092;2023-05-10T15:06:34;4.10;;;1.20;;
57331;SDS011;43164;50.908;18.092;2023-05-10T15:09:12;4.40;;;1.70;;
57331;SDS011;43164;50.908;18.092;2023-05-10T15:11:51;3.50;;;1.30;;
57331;SDS011;43164;50.908;18.092;2023-05-10T15:14:29;3.70;;;1.30;;
57331;SDS011;43164;50.908;18.092;2023-05-10T15:20:48;5.20;;;1.30;;
57331;SDS011;43164;50.908;18.092;2023-05-10T15:30:24;8.50;;;2.20;;
57331;SDS011;43164;50.908;18.092;2023-05-10T15:46:44;5.40;;;1.40;;
57331;SDS011;43164;50.908;18.092;2023-05-10T15:49:13;4.60;;;1.50;;
57331;SDS011;43164;50.908;18.092;2023-05-10T15:51:42;3.00;;;1.40;;
57331;SDS011;43164;50.908;18.092;2023-05-10T15:57:58;4.50;;;1.20;;
57331;SDS011;43164;50.908;18.092;2023-05-10T16:24:56;5.90;;;1.30;;
57331;SDS011;43164;50.908;18.092;2023-05-10T16:27:29;5.40;;;1.50;;
57331;SDS011;43164;50.908;18.092;2023-05-10T16:30:14;4.60;;;1.40;;
57331;SDS011;43164;50.908;18.092;2023-05-10T16:32:47;4.90;;;1.90;;
57331;SDS011;43164;50.908;18.092;2023-05-10T16:35:20;3.60;;;1.40;;
57331;SDS011;43164;50.908;18.092;2023-05-10T16:37:49;5.60;;;1.50;;
57331;SDS011;43164;50.908;18.092;2023-05-10T16:40:27;3.40;;;1.10;;
57331;SDS011;43164;50.908;18.092;2023-05-10T16:46:41;5.70;;;1.70;;
57331;SDS011;43164;50.908;18.092;2023-05-10T17:11:37;5.60;;;1.40;;
57331;SDS011;43164;50.908;18.092;2023-05-10T17:20:24;3.00;;;1.20;;
57331;SDS011;43164;50.908;18.092;2023-05-10T17:22:52;6.90;;;1.80;;
57331;SDS011;43164;50.908;18.092;2023-05-10T17:25:20;4.30;;;1.30;;
57331;SDS011;43164;50.908;18.092;2023-05-10T17:28:03;7.40;;;1.50;;
57331;SDS011;43164;50.908;18.092;2023-05-10T17:30:31;5.10;;;1.80;;
57331;SDS011;43164;50.908;18.092;2023-05-10T17:33:17;4.10;;;1.40;;
57331;SDS011;43164;50.908;18.092;2023-05-10T17:39:14;4.80;;;1.40;;
57331;SDS011;43164;50.908;18.092;2023-05-10T17:45:19;6.10;;;1.70;;
57331;SDS011;43164;50.908;18.092;2023-05-10T17:47:48;5.10;;;1.70;;
57331;SDS011;43164;50.908;18.092;2023-05-10T17:50:20;4.80;;;1.60;;
57331;SDS011;43164;50.908;18.092;2023-05-10T18:06:21;6.60;;;2.00;;
57331;SDS011;43164;50.908;18.092;2023-05-10T18:12:38;7.30;;;1.90;;
57331;SDS011;43164;50.908;18.092;2023-05-10T18:21:50;3.80;;;1.70;;
57331;SDS011;43164;50.908;18.092;2023-05-10T19:00:35;4.30;;;1.90;;
57331;SDS011;43164;50.908;18.092;2023-05-10T19:03:14;11.90;;;2.80;;
57331;SDS011;43164;50.908;18.092;2023-05-10T19:05:59;4.90;;;1.70;;
57331;SDS011;43164;50.908;18.092;2023-05-10T19:16:12;6.90;;;2.00;;
57331;SDS011;43164;50.908;18.092;2023-05-10T19:21:26;5.10;;;2.20;;
57331;SDS011;43164;50.908;18.092;2023-05-10T19:24:03;6.40;;;2.10;;
57331;SDS011;43164;50.908;18.092;2023-05-10T19:26:35;5.70;;;2.20;;
57331;SDS011;43164;50.908;18.092;2023-05-10T19:29:21;5.30;;;2.30;;
57331;SDS011;43164;50.908;18.092;2023-05-10T19:37:33;5.90;;;2.30;;
57331;SDS011;43164;50.908;18.092;2023-05-10T19:40:09;6.30;;;2.20;;
57331;SDS011;43164;50.908;18.092;2023-05-10T19:42:51;6.50;;;2.20;;
57331;SDS011;43164;50.908;18.092;2023-05-10T19:45:38;7.00;;;2.30;;
57331;SDS011;43164;50.908;18.092;2023-05-10T19:48:22;6.30;;;1.90;;
57331;SDS011;43164;50.908;18.092;2023-05-10T19:51:01;5.40;;;2.10;;
57331;SDS011;43164;50.908;18.092;2023-05-10T19:53:35;6.50;;;2.40;;
57331;SDS011;43164;50.908;18.092;2023-05-10T19:56:21;4.70;;;2.00;;
57331;SDS011;43164;50.908;18.092;2023-05-10T19:58:56;8.80;;;2.20;;
57331;SDS011;43164;50.908;18.092;2023-05-10T20:01:34;9.70;;;2.50;;
57331;SDS011;43164;50.908;18.092;2023-05-10T20:04:12;6.20;;;2.30;;
57331;SDS011;43164;50.908;18.092;2023-05-10T20:06:51;7.10;;;2.10;;
57331;SDS011;43164;50.908;18.092;2023-05-10T20:09:33;8.50;;;2.30;;
57331;SDS011;43164;50.908;18.092;2023-05-10T20:12:02;5.90;;;2.20;;
57331;SDS011;43164;50.908;18.092;2023-05-10T20:14:36;6.40;;;2.30;;
57331;SDS011;43164;50.908;18.092;2023-05-10T20:17:13;9.30;;;2.50;;
57331;SDS011;43164;50.908;18.092;2023-05-10T20:19:51;5.90;;;2.00;;
57331;SDS011;43164;50.908;18.092;2023-05-10T20:34:59;6.40;;;2.40;;
57331;SDS011;43164;50.908;18.092;2023-05-10T20:40:55;6.10;;;2.40;;
57331;SDS011;43164;50.908;18.092;2023-05-10T20:43:47;7.00;;;2.30;;
57331;SDS011;43164;50.908;18.092;2023-05-10T20:46:23;9.60;;;2.40;;
57331;SDS011;43164;50.908;18.092;2023-05-10T20:48:57;7.00;;;2.40;;
57331;SDS011;43164;50.908;18.092;2023-05-10T20:51:27;8.20;;;2.60;;
57331;SDS011;43164;50.908;18.092;2023-05-10T20:54:05;6.50;;;2.20;;
57331;SDS011;43164;50.908;18.092;2023-05-10T20:56:33;6.70;;;2.80;;
57331;SDS011;43164;50.908;18.092;2023-05-10T20:59:01;7.60;;;2.50;;
57331;SDS011;43164;50.908;18.092;2023-05-10T21:01:30;8.10;;;2.80;;
57331;SDS011;43164;50.908;18.092;2023-05-10T21:03:58;6.50;;;2.40;;
57331;SDS011;43164;50.908;18.092;2023-05-10T21:06:26;5.60;;;2.30;;
57331;SDS011;43164;50.908;18.092;2023-05-10T21:08:54;6.70;;;2.20;;
57331;SDS011;43164;50.908;18.092;2023-05-10T21:11:24;5.90;;;2.40;;
57331;SDS011;43164;50.908;18.092;2023-05-10T21:13:53;8.00;;;2.90;;
57331;SDS011;43164;50.908;18.092;2023-05-10T21:23:09;7.10;;;2.60;;
57331;SDS011;43164;50.908;18.092;2023-05-10T21:25:39;6.80;;;2.30;;
57331;SDS011;43164;50.908;18.092;2023-05-10T21:28:14;9.50;;;2.90;;
57331;SDS011;43164;50.908;18.092;2023-05-10T21:30:46;9.50;;;2.40;;
57331;SDS011;43164;50.908;18.092;2023-05-10T21:33:14;7.50;;;2.30;;
57331;SDS011;43164;50.908;18.092;2023-05-10T21:35:42;6.60;;;2.60;;
57331;SDS011;43164;50.908;18.092;2023-05-10T21:38:09;7.10;;;2.40;;
57331;SDS011;43164;50.908;18.092;2023-05-10T21:40:37;8.80;;;2.00;;
57331;SDS011;43164;50.908;18.092;2023-05-10T21:43:06;10.90;;;2.40;;
57331;SDS011;43164;50.908;18.092;2023-05-10T21:45:35;7.10;;;2.20;;
57331;SDS011;43164;50.908;18.092;2023-05-10T21:48:07;5.60;;;1.90;;
57331;SDS011;43164;50.908;18.092;2023-05-10T21:50:42;9.20;;;2.30;;
57331;SDS011;43164;50.908;18.092;2023-05-10T21:53:11;7.20;;;2.40;;
57331;SDS011;43164;50.908;18.092;2023-05-10T21:55:41;4.90;;;2.00;;
57331;SDS011;43164;50.908;18.092;2023-05-10T21:58:10;8.60;;;2.50;;
57331;SDS011;43164;50.908;18.092;2023-05-10T22:03:49;7.40;;;2.10;;
57331;SDS011;43164;50.908;18.092;2023-05-10T22:06:17;5.40;;;2.10;;
57331;SDS011;43164;50.908;18.092;2023-05-10T22:08:47;7.00;;;2.40;;
57331;SDS011;43164;50.908;18.092;2023-05-10T22:11:16;7.60;;;2.70;;
57331;SDS011;43164;50.908;18.092;2023-05-10T22:13:45;10.70;;;2.60;;
57331;SDS011;43164;50.908;18.092;2023-05-10T22:16:13;6.80;;;2.40;;
57331;SDS011;43164;50.908;18.092;2023-05-10T22:18:41;9.20;;;2.20;;
57331;SDS011;43164;50.908;18.092;2023-05-10T22:21:09;7.20;;;2.60;;
57331;SDS011;43164;50.908;18.092;2023-05-10T22:23:37;7.00;;;2.30;;
57331;SDS011;43164;50.908;18.092;2023-05-10T22:26:05;6.20;;;2.10;;